Time;durP1;ratioP1;P1;durP2;ratioP2;P2;SDS_P1;SDS_P2;PMS_P1;PMS_P2;Temp;Humidity;BMP_temperature;BMP_pressure;BME280_temperature;BME280_humidity;BME280_pressure;Samples;Min_cycle;Max_cycle;Signal;HPM_P1;HPM_P2
2022/02/05 00:02:18;;;;;;;9.60;4.50;;;;;2.80;101271.00;;;;9578574;30;20719;-80
2022/02/05 00:07:21;;;;;;;5.67;3.50;;;;;2.70;101276.00;;;;9586895;30;20236;-80
2022/02/05 00:39:00;;;;;;;13.20;3.57;;;;;2.60;101286.00;;;;9578767;30;20241;-80
2022/02/05 00:44:03;;;;;;;9.33;3.13;;;;;2.50;101295.00;;;;9586418;30;20285;-80
2022/02/05 00:49:06;;;;;;;8.57;3.63;;;;;2.50;101309.00;;;;9585713;30;20222;-81
2022/02/05 00:54:13;;;;;;;8.17;3.40;;;;;2.50;101312.00;;;;9551924;30;20213;-81
2022/02/05 00:59:19;;;;;;;9.67;3.80;;;;;2.50;101316.00;;;;9564666;30;20261;-81
2022/02/05 01:04:21;;;;;;;7.50;3.40;;;;;2.50;101321.00;;;;9578493;30;20245;-81
2022/02/05 01:09:25;;;;;;;9.17;4.33;;;;;2.40;101328.00;;;;9592409;30;20215;-81
2022/02/05 01:14:31;;;;;;;7.00;3.97;;;;;2.50;101331.00;;;;9608069;30;20227;-80
2022/02/05 01:24:43;;;;;;;6.53;3.30;;;;;2.30;101358.00;;;;9598543;30;20312;-81
2022/02/05 01:35:25;;;;;;;8.40;3.20;;;;;2.20;101364.00;;;;9576819;30;20237;-81
2022/02/05 01:56:50;;;;;;;9.30;3.30;;;;;2.20;101381.00;;;;9605915;30;20740;-80
2022/02/05 02:23:32;;;;;;;10.20;3.10;;;;;2.30;101410.00;;;;9591265;30;20285;-81
2022/02/05 02:33:45;;;;;;;7.93;3.63;;;;;2.40;101409.00;;;;9576952;30;20675;-81
2022/02/05 02:38:51;;;;;;;10.00;3.57;;;;;2.50;101414.00;;;;9575703;30;20244;-81
2022/02/05 02:43:53;;;;;;;8.40;3.17;;;;;2.60;101421.00;;;;9580600;30;20244;-81
2022/02/05 02:48:56;;;;;;;9.93;3.53;;;;;2.60;101428.00;;;;9596699;30;20217;-81
2022/02/05 02:59:26;;;;;;;9.23;3.33;;;;;2.70;101447.00;;;;9596866;30;20706;-81
2022/02/05 03:04:28;;;;;;;8.93;3.67;;;;;2.60;101449.00;;;;9591071;30;20729;-81
2022/02/05 03:09:30;;;;;;;13.77;3.43;;;;;2.50;101453.00;;;;9613361;30;20256;-81
2022/02/05 03:14:32;;;;;;;10.50;2.90;;;;;2.40;101455.00;;;;9584043;30;20690;-81
2022/02/05 03:19:34;;;;;;;9.70;2.80;;;;;2.30;101454.00;;;;9580963;30;20284;-81
2022/02/05 03:24:36;;;;;;;14.50;3.37;;;;;2.20;101452.00;;;;9573870;30;20396;-81
2022/02/05 03:29:41;;;;;;;9.93;3.17;;;;;2.30;101458.00;;;;9594094;30;20279;-81
2022/02/05 03:34:43;;;;;;;6.90;2.90;;;;;2.30;101467.00;;;;9594042;30;20213;-81
2022/02/05 03:39:46;;;;;;;12.10;3.47;;;;;2.30;101473.00;;;;9609572;30;20305;-81
2022/02/05 03:44:48;;;;;;;8.67;3.20;;;;;2.30;101480.00;;;;9599871;30;20220;-81
2022/02/05 03:49:51;;;;;;;11.63;3.20;;;;;2.20;101486.00;;;;9596392;30;20287;-81
2022/02/05 03:54:53;;;;;;;8.90;3.03;;;;;2.10;101487.00;;;;9567967;30;20241;-81
2022/02/05 03:59:55;;;;;;;11.23;3.00;;;;;2.10;101489.00;;;;9603795;30;20309;-83
2022/02/05 04:04:57;;;;;;;10.93;2.70;;;;;2.00;101494.00;;;;9579055;30;20332;-82
2022/02/05 04:10:02;;;;;;;9.00;3.20;;;;;2.00;101493.00;;;;9621010;30;20287;-82
2022/02/05 04:20:27;;;;;;;9.40;3.10;;;;;2.00;101492.00;;;;9590708;30;20232;-82
2022/02/05 04:25:30;;;;;;;3.67;2.47;;;;;1.90;101505.00;;;;9595156;30;20217;-82
2022/02/05 04:30:32;;;;;;;10.63;2.87;;;;;1.90;101494.00;;;;9609394;30;20639;-82
2022/02/05 04:35:34;;;;;;;9.07;3.67;;;;;1.90;101506.00;;;;9609363;30;20713;-81
2022/02/05 04:40:46;;;;;;;5.83;2.67;;;;;1.90;101508.00;;;;9587891;30;20320;-82
2022/02/05 05:22:38;;;;;;;11.50;3.30;;;;;1.80;101527.00;;;;9600199;30;20237;-82
2022/02/05 05:27:40;;;;;;;11.93;3.90;;;;;1.80;101536.00;;;;9614230;30;20626;-82
2022/02/05 05:32:42;;;;;;;12.50;3.00;;;;;1.80;101540.00;;;;9573040;30;20248;-82
2022/02/05 05:37:49;;;;;;;7.17;2.97;;;;;1.80;101530.00;;;;9598783;30;20718;-82
2022/02/05 05:43:21;;;;;;;8.40;3.00;;;;;1.80;101543.00;;;;9585330;30;20245;-81
2022/02/05 05:48:16;;;;;;;12.07;3.20;;;;;1.90;101544.00;;;;9580761;30;20380;-82
2022/02/05 05:53:18;;;;;;;11.67;3.40;;;;;1.80;101555.00;;;;9578608;30;20675;-82
2022/02/05 05:58:20;;;;;;;12.87;3.00;;;;;1.80;101575.00;;;;9595336;30;20224;-82
2022/02/05 06:03:23;;;;;;;16.67;4.10;;;;;1.70;101575.00;;;;9585381;30;20279;-82
2022/02/05 06:08:24;;;;;;;7.70;2.60;;;;;1.60;101564.00;;;;9567132;30;20234;-82
2022/02/05 06:13:27;;;;;;;13.90;3.50;;;;;1.60;101574.00;;;;9578905;30;20676;-82
2022/02/05 06:18:30;;;;;;;10.70;3.37;;;;;1.70;101574.00;;;;9612134;30;20209;-82
2022/02/05 06:23:32;;;;;;;14.30;4.57;;;;;1.70;101574.00;;;;9584895;30;20272;-82
2022/02/05 06:28:34;;;;;;;13.10;2.97;;;;;1.70;101578.00;;;;9597800;30;20304;-82
2022/02/05 06:33:36;;;;;;;16.50;3.60;;;;;1.70;101584.00;;;;9589592;30;20213;-82
2022/02/05 06:38:38;;;;;;;13.43;3.93;;;;;1.60;101581.00;;;;9576472;30;20273;-81
2022/02/05 06:43:40;;;;;;;16.90;3.70;;;;;1.60;101590.00;;;;9592176;30;20237;-82
2022/02/05 06:48:42;;;;;;;15.77;3.73;;;;;1.60;101595.00;;;;9597533;30;20209;-82
2022/02/05 06:53:44;;;;;;;10.90;3.30;;;;;1.60;101592.00;;;;9598669;30;20288;-82
2022/02/05 06:58:46;;;;;;;15.37;3.80;;;;;1.50;101594.00;;;;9578693;30;20304;-82
2022/02/05 07:03:48;;;;;;;15.70;3.47;;;;;1.60;101601.00;;;;9574678;30;20252;-82
2022/02/05 07:08:50;;;;;;;11.83;3.53;;;;;1.60;101602.00;;;;9590406;30;20217;-82
2022/02/05 07:13:54;;;;;;;7.37;3.07;;;;;1.60;101598.00;;;;9611865;30;21300;-82
2022/02/05 07:29:13;;;;;;;15.37;3.80;;;;;1.80;101601.00;;;;9610864;30;20213;-81
2022/02/05 07:34:18;;;;;;;9.63;3.43;;;;;1.80;101602.00;;;;9624581;30;20216;-81
2022/02/05 07:39:20;;;;;;;21.97;4.13;;;;;1.90;101617.00;;;;9588121;30;20260;-82
2022/02/05 07:44:22;;;;;;;10.93;3.43;;;;;2.00;101622.00;;;;9596146;30;20209;-81
2022/02/05 07:49:25;;;;;;;9.07;3.60;;;;;2.10;101635.00;;;;9620431;30;20209;-83
2022/02/05 07:54:27;;;;;;;20.83;3.83;;;;;2.20;101648.00;;;;9597383;30;20231;-82
2022/02/05 07:59:32;;;;;;;13.13;4.37;;;;;2.30;101663.00;;;;9604813;30;20217;-81
2022/02/05 08:04:33;;;;;;;12.63;3.53;;;;;2.40;101665.00;;;;9602540;30;20237;-81
2022/02/05 08:09:54;;;;;;;13.00;3.47;;;;;2.60;101668.00;;;;9603749;30;20240;-82
2022/02/05 08:14:58;;;;;;;11.20;4.10;;;;;2.80;101660.00;;;;9594652;30;20209;-81
2022/02/05 08:20:00;;;;;;;18.53;4.80;;;;;3.00;101682.00;;;;9602887;30;20229;-81
2022/02/05 08:25:02;;;;;;;10.97;4.00;;;;;3.20;101681.00;;;;9614923;30;20213;-82
2022/02/05 08:30:08;;;;;;;16.40;3.77;;;;;3.30;101670.00;;;;9579130;30;20273;-82
2022/02/05 08:35:11;;;;;;;14.13;5.37;;;;;3.50;101664.00;;;;9591207;30;20248;-83
2022/02/05 08:40:13;;;;;;;16.40;5.67;;;;;3.70;101664.00;;;;9579384;30;20237;-83
2022/02/05 08:45:20;;;;;;;12.67;3.77;;;;;3.90;101663.00;;;;9619726;30;20251;-83
2022/02/05 08:50:22;;;;;;;15.87;3.77;;;;;4.20;101666.00;;;;9601431;30;20220;-82
2022/02/05 08:55:31;;;;;;;8.37;3.17;;;;;4.50;101664.00;;;;9618576;30;20757;-82
2022/02/05 09:00:33;;;;;;;14.63;4.20;;;;;5.00;101664.00;;;;9593171;30;20257;-82
2022/02/05 09:05:46;;;;;;;6.97;3.73;;;;;5.40;101678.00;;;;9595589;30;20237;-82
2022/02/05 09:10:55;;;;;;;10.23;3.23;;;;;5.80;101669.00;;;;9613586;30;20233;-82
2022/02/05 09:15:57;;;;;;;6.47;2.53;;;;;6.10;101666.00;;;;9604238;30;20205;-81
2022/02/05 09:21:08;;;;;;;12.70;3.53;;;;;6.40;101654.00;;;;9597820;30;20237;-83
2022/02/05 09:26:12;;;;;;;9.40;3.23;;;;;6.70;101665.00;;;;9611313;30;20287;-82
2022/02/05 09:31:32;;;;;;;7.67;2.63;;;;;7.00;101668.00;;;;9575187;30;20387;-82
2022/02/05 09:36:36;;;;;;;13.03;3.00;;;;;7.20;101682.00;;;;9599480;30;20221;-82
2022/02/05 09:41:39;;;;;;;8.90;3.27;;;;;7.40;101686.00;;;;9585548;30;20233;-82
2022/02/05 09:46:43;;;;;;;9.17;2.80;;;;;7.40;101692.00;;;;9584318;30;20221;-82
2022/02/05 09:52:05;;;;;;;10.80;3.07;;;;;7.40;101698.00;;;;9590623;30;20304;-82
2022/02/05 09:57:11;;;;;;;6.40;2.43;;;;;7.70;101705.00;;;;9593678;30;20236;-81
2022/02/05 10:02:30;;;;;;;7.10;2.60;;;;;7.90;101686.00;;;;9625479;30;20279;-81
2022/02/05 10:08:00;;;;;;;11.33;3.13;;;;;8.00;101688.00;;;;9601969;30;20232;-82
2022/02/05 10:13:12;;;;;;;9.43;2.73;;;;;8.30;101686.00;;;;9592928;30;20209;-81
2022/02/05 10:18:24;;;;;;;7.97;3.00;;;;;8.50;101690.00;;;;9606511;30;20299;-80
2022/02/05 10:23:28;;;;;;;7.27;2.17;;;;;8.60;101691.00;;;;9583822;30;20672;-81
2022/02/05 10:28:34;;;;;;;11.83;3.40;;;;;8.90;101688.00;;;;9598586;30;20208;-81
2022/02/05 10:33:36;;;;;;;6.73;2.60;;;;;9.10;101690.00;;;;9609907;30;20205;-80
2022/02/05 10:43:45;;;;;;;10.77;3.20;;;;;8.80;101681.00;;;;9604755;30;20289;-81
2022/02/05 10:48:50;;;;;;;5.33;2.37;;;;;8.40;101680.00;;;;9592292;30;20224;-82
2022/02/05 10:54:07;;;;;;;9.07;3.10;;;;;9.20;101682.00;;;;9602896;30;20221;-80
2022/02/05 10:59:17;;;;;;;6.57;2.63;;;;;9.70;101674.00;;;;9601903;30;20193;-81
2022/02/05 11:09:53;;;;;;;6.57;2.57;;;;;10.10;101666.00;;;;9599160;30;20662;-81
2022/02/05 11:20:14;;;;;;;8.13;2.83;;;;;10.40;101654.00;;;;9588332;30;20287;-79
2022/02/05 11:25:18;;;;;;;9.63;2.50;;;;;10.50;101653.00;;;;9598259;30;20213;-79
2022/02/05 11:30:32;;;;;;;9.23;2.37;;;;;10.70;101637.00;;;;9577987;30;20256;-82
2022/02/05 11:35:47;;;;;;;5.73;2.30;;;;;10.80;101635.00;;;;9587631;30;20217;-80
2022/02/05 11:40:52;;;;;;;10.73;2.77;;;;;10.80;101630.00;;;;9617906;30;20251;-80
2022/02/05 11:46:13;;;;;;;8.53;2.50;;;;;10.90;101647.00;;;;9593746;30;20213;-80
2022/02/05 11:51:16;;;;;;;9.30;2.23;;;;;11.00;101628.00;;;;9576038;30;20212;-80
2022/02/05 11:56:18;;;;;;;13.30;3.40;;;;;10.80;101634.00;;;;9576635;30;20241;-80
2022/02/05 12:01:34;;;;;;;9.43;2.50;;;;;10.70;101643.00;;;;9578051;30;20243;-80
2022/02/05 12:06:49;;;;;;;8.90;1.90;;;;;10.70;101642.00;;;;9597955;30;20264;-78
2022/02/05 12:11:52;;;;;;;10.77;3.20;;;;;10.70;101622.00;;;;9599286;30;20279;-81
2022/02/05 12:17:11;;;;;;;14.00;3.83;;;;;10.80;101615.00;;;;9622902;30;20247;-81
2022/02/05 12:22:14;;;;;;;7.47;2.60;;;;;10.90;101619.00;;;;9623612;30;20271;-81
2022/02/05 12:27:33;;;;;;;7.23;2.13;;;;;11.00;101606.00;;;;9597754;30;20587;-81
2022/02/05 12:32:35;;;;;;;7.67;2.37;;;;;11.00;101597.00;;;;9597110;30;20267;-80
2022/02/05 12:37:37;;;;;;;8.57;2.60;;;;;10.60;101614.00;;;;9619114;30;20257;-81
2022/02/05 12:42:40;;;;;;;7.33;2.47;;;;;10.40;101608.00;;;;9569283;30;20297;-80
2022/02/05 12:47:44;;;;;;;6.77;2.00;;;;;10.80;101603.00;;;;9596023;30;20223;-80
2022/02/05 12:52:51;;;;;;;8.93;2.57;;;;;10.90;101595.00;;;;9612358;30;20268;-80
2022/02/05 12:58:02;;;;;;;11.50;2.33;;;;;11.00;101613.00;;;;9605316;30;20205;-80
2022/02/05 13:03:21;;;;;;;11.53;2.90;;;;;10.70;101607.00;;;;9589420;30;20333;-80
2022/02/05 13:08:25;;;;;;;14.77;2.73;;;;;10.70;101588.00;;;;9610876;30;20221;-80
2022/02/05 13:13:28;;;;;;;6.33;1.87;;;;;10.70;101580.00;;;;9571623;30;20237;-80
2022/02/05 13:19:49;;;;;;;7.93;2.37;;;;;11.10;101571.00;;;;9622498;30;20213;-81
2022/02/05 13:33:32;;;;;;;7.13;1.93;;;;;10.70;101576.00;;;;9601529;30;20943;-80
2022/02/05 13:35:12;;;;;;;6.53;2.47;;;;;10.50;101579.00;;;;9579936;30;20237;-79
2022/02/05 13:40:18;;;;;;;7.10;2.40;;;;;10.10;101568.00;;;;9597841;30;20209;-79
2022/02/05 13:45:32;;;;;;;7.87;2.03;;;;;9.90;101572.00;;;;9572288;30;20237;-79
2022/02/05 13:50:37;;;;;;;7.60;1.60;;;;;9.60;101575.00;;;;9591715;30;20250;-79
2022/02/05 13:55:42;;;;;;;7.20;1.90;;;;;9.70;101569.00;;;;9581710;30;20212;-79
2022/02/05 14:00:45;;;;;;;5.83;1.73;;;;;9.50;101569.00;;;;9594646;30;20253;-79
2022/02/05 14:06:14;;;;;;;7.00;2.20;;;;;9.40;101569.00;;;;9589170;30;20314;-80
2022/02/05 14:11:28;;;;;;;6.57;1.93;;;;;9.40;101564.00;;;;9555975;30;20337;-79
2022/02/05 14:16:35;;;;;;;8.70;1.93;;;;;9.50;101560.00;;;;9576522;30;20252;-80
2022/02/05 14:21:47;;;;;;;8.23;1.90;;;;;10.40;101556.00;;;;9610072;30;20228;-79
2022/02/05 14:27:14;;;;;;;11.90;2.83;;;;;10.40;101555.00;;;;9561957;30;20242;-79
2022/02/05 14:32:27;;;;;;;9.07;2.43;;;;;11.40;101532.00;;;;9591737;30;20210;-80
2022/02/05 14:42:50;;;;;;;13.10;2.40;;;;;11.10;101529.00;;;;9610006;30;20999;-79
2022/02/05 14:47:52;;;;;;;12.87;2.47;;;;;10.90;101537.00;;;;9570389;30;20216;-80
2022/02/05 14:52:54;;;;;;;10.43;3.13;;;;;11.40;101517.00;;;;9612707;30;20206;-79
2022/02/05 14:57:56;;;;;;;5.90;1.80;;;;;11.60;101543.00;;;;9610222;30;20244;-79
2022/02/05 15:02:57;;;;;;;12.43;3.27;;;;;11.50;101531.00;;;;9582725;30;20268;-80
2022/02/05 15:07:59;;;;;;;12.53;2.57;;;;;10.30;101529.00;;;;9586789;30;20296;-80
2022/02/05 15:13:03;;;;;;;10.30;2.63;;;;;9.90;101525.00;;;;9574794;30;20210;-80
2022/02/05 15:18:05;;;;;;;10.47;1.90;;;;;9.50;101528.00;;;;9587099;30;20213;-80
2022/02/05 15:23:09;;;;;;;10.70;2.60;;;;;9.30;101518.00;;;;9595292;30;20291;-80
2022/02/05 15:28:11;;;;;;;8.43;2.30;;;;;9.30;101502.00;;;;9608337;30;20244;-80
2022/02/05 15:33:14;;;;;;;7.00;1.70;;;;;9.10;101495.00;;;;9608471;30;20279;-79
2022/02/05 15:38:17;;;;;;;9.77;1.90;;;;;9.30;101496.00;;;;9594615;30;20664;-79
2022/02/05 15:48:41;;;;;;;7.23;2.00;;;;;9.00;101480.00;;;;9622363;30;20368;-80
2022/02/05 15:53:51;;;;;;;9.97;2.17;;;;;8.60;101478.00;;;;9595297;30;20245;-80
2022/02/05 15:58:55;;;;;;;11.93;2.13;;;;;8.50;101482.00;;;;9593738;30;20225;-80
2022/02/05 16:03:57;;;;;;;14.63;2.20;;;;;8.30;101470.00;;;;9573519;30;20663;-80
2022/02/05 16:08:59;;;;;;;11.60;2.40;;;;;8.10;101470.00;;;;9621093;30;20324;-80
2022/02/05 16:14:01;;;;;;;12.10;2.80;;;;;7.80;101466.00;;;;9579456;30;20301;-79
2022/02/05 16:19:03;;;;;;;10.03;2.30;;;;;7.80;101464.00;;;;9592889;30;20229;-79
2022/02/05 16:24:05;;;;;;;14.33;2.90;;;;;7.70;101455.00;;;;9606763;30;20241;-79
2022/02/05 16:29:07;;;;;;;6.37;2.20;;;;;7.70;101426.00;;;;9606053;30;20220;-79
2022/02/05 16:34:12;;;;;;;10.10;1.67;;;;;7.60;101417.00;;;;9592827;30;20213;-79
2022/02/05 16:39:19;;;;;;;5.10;1.53;;;;;7.50;101413.00;;;;9563535;30;20691;-79
2022/02/05 16:44:23;;;;;;;5.70;1.83;;;;;7.50;101412.00;;;;9585108;30;20293;-80
2022/02/05 16:49:26;;;;;;;5.90;1.80;;;;;7.40;101404.00;;;;9598068;30;20243;-79
2022/02/05 16:54:29;;;;;;;6.77;1.93;;;;;7.40;101404.00;;;;9585497;30;20671;-80
2022/02/05 16:59:31;;;;;;;6.03;1.70;;;;;7.50;101405.00;;;;9567815;30;20252;-80
2022/02/05 17:04:32;;;;;;;6.40;2.20;;;;;7.50;101392.00;;;;9612074;30;20272;-80
2022/02/05 17:09:40;;;;;;;10.57;1.63;;;;;7.60;101380.00;;;;9599234;30;20295;-80
2022/02/05 17:14:43;;;;;;;8.57;2.27;;;;;7.60;101376.00;;;;9573373;30;20217;-80
2022/02/05 17:19:50;;;;;;;11.63;2.50;;;;;7.60;101383.00;;;;9592713;30;20218;-81
2022/02/05 17:24:53;;;;;;;8.97;2.73;;;;;7.60;101379.00;;;;9576668;30;20909;-80
2022/02/05 17:29:55;;;;;;;6.63;2.40;;;;;7.50;101360.00;;;;9576870;30;20238;-80
2022/02/05 17:35:00;;;;;;;12.27;2.60;;;;;7.40;101347.00;;;;9578342;30;20206;-80
2022/02/05 17:40:03;;;;;;;7.00;2.03;;;;;7.40;101344.00;;;;9576790;30;20222;-80
2022/02/05 17:45:05;;;;;;;5.20;2.73;;;;;7.40;101338.00;;;;9584107;30;20248;-80
2022/02/05 17:50:08;;;;;;;8.97;2.33;;;;;7.50;101338.00;;;;9583658;30;20214;-80
2022/02/05 17:55:15;;;;;;;4.87;2.50;;;;;7.60;101338.00;;;;9585354;30;20232;-80
2022/02/05 18:00:18;;;;;;;8.73;2.33;;;;;7.60;101338.00;;;;9574845;30;20218;-80
2022/02/05 18:05:36;;;;;;;9.97;2.30;;;;;7.60;101333.00;;;;9575570;30;20261;-79
2022/02/05 18:10:58;;;;;;;5.43;2.23;;;;;7.70;101329.00;;;;9576111;30;20209;-80
2022/02/05 18:16:05;;;;;;;9.17;2.70;;;;;7.60;101327.00;;;;9594344;30;20670;-80
2022/02/05 18:21:07;;;;;;;9.33;2.83;;;;;7.60;101322.00;;;;9608036;30;20217;-80
2022/02/05 18:26:11;;;;;;;6.73;2.63;;;;;7.60;101321.00;;;;9574347;30;20255;-80
2022/02/05 18:31:13;;;;;;;10.67;3.43;;;;;7.70;101326.00;;;;9576922;30;20201;-80
2022/02/05 18:36:16;;;;;;;6.17;2.77;;;;;7.70;101322.00;;;;9581531;30;20220;-80
2022/02/05 18:41:24;;;;;;;7.30;2.70;;;;;7.60;101323.00;;;;9594261;30;20235;-80
2022/02/05 18:46:36;;;;;;;9.10;2.67;;;;;7.50;101314.00;;;;9573971;30;20320;-80
2022/02/05 18:51:38;;;;;;;9.57;2.93;;;;;7.50;101322.00;;;;9592070;30;20246;-80
2022/02/05 18:56:42;;;;;;;11.77;2.50;;;;;7.50;101314.00;;;;9609848;30;20926;-80
2022/02/05 19:01:54;;;;;;;7.30;2.03;;;;;7.50;101301.00;;;;9607743;30;20257;-79
2022/02/05 19:22:50;;;;;;;3.33;1.90;;;;;7.30;101261.00;;;;9608938;30;20289;-80
2022/02/05 19:27:52;;;;;;;10.40;2.67;;;;;7.30;101276.00;;;;9588691;30;20301;-80
2022/02/05 19:32:53;;;;;;;11.23;2.27;;;;;7.30;101261.00;;;;9574840;30;20240;-80
2022/02/05 19:37:55;;;;;;;6.60;2.00;;;;;7.40;101269.00;;;;9588967;30;20214;-80
2022/02/05 19:42:57;;;;;;;10.33;2.17;;;;;7.40;101256.00;;;;9579040;30;20328;-80
2022/02/05 19:48:11;;;;;;;6.17;1.90;;;;;7.50;101245.00;;;;9587625;30;20398;-80
2022/02/05 19:53:14;;;;;;;10.00;2.33;;;;;7.40;101248.00;;;;9593264;30;20205;-80
2022/02/05 19:58:17;;;;;;;9.73;2.70;;;;;7.40;101245.00;;;;9591555;30;20804;-80
2022/02/05 20:03:23;;;;;;;5.63;2.00;;;;;7.40;101244.00;;;;9573545;30;20252;-79
2022/02/05 20:13:30;;;;;;;11.93;1.90;;;;;7.50;101227.00;;;;9600664;30;20237;-80
2022/02/05 20:18:33;;;;;;;8.77;2.20;;;;;7.50;101238.00;;;;9614479;30;20236;-79
2022/02/05 20:23:36;;;;;;;7.00;2.60;;;;;7.60;101238.00;;;;9601840;30;20240;-81
2022/02/05 20:28:38;;;;;;;6.43;1.77;;;;;7.60;101229.00;;;;9600915;30;20256;-80
2022/02/05 20:33:40;;;;;;;12.57;2.17;;;;;7.60;101215.00;;;;9602180;30;20268;-80
2022/02/05 20:38:42;;;;;;;7.23;1.93;;;;;7.70;101209.00;;;;9587083;30;20216;-80
2022/02/05 20:43:45;;;;;;;7.57;2.57;;;;;7.70;101213.00;;;;9599255;30;20268;-80
2022/02/05 20:48:46;;;;;;;7.97;2.23;;;;;7.60;101196.00;;;;9583560;30;20391;-80
2022/02/05 20:53:52;;;;;;;5.27;1.87;;;;;7.60;101180.00;;;;9579379;30;20233;-79
2022/02/05 20:58:54;;;;;;;4.80;1.60;;;;;7.60;101183.00;;;;9578081;30;20277;-79
2022/02/05 21:04:01;;;;;;;8.80;2.03;;;;;7.60;101184.00;;;;9578149;30;20246;-80
2022/02/05 21:09:06;;;;;;;10.20;2.07;;;;;7.70;101173.00;;;;9595913;30;20649;-80
2022/02/05 21:14:08;;;;;;;6.57;2.00;;;;;7.70;101173.00;;;;9571708;30;20284;-80
2022/02/05 21:19:10;;;;;;;6.90;2.00;;;;;7.70;101176.00;;;;9627602;30;20245;-81
2022/02/05 21:24:14;;;;;;;9.27;2.07;;;;;7.70;101166.00;;;;9610390;30;20237;-80
2022/02/05 21:29:23;;;;;;;5.53;1.77;;;;;7.70;101164.00;;;;9596326;30;20303;-80
2022/02/05 21:34:34;;;;;;;7.60;1.97;;;;;7.70;101161.00;;;;9581809;30;20343;-80
2022/02/05 21:39:36;;;;;;;7.07;2.33;;;;;7.70;101159.00;;;;9584739;30;20223;-80
2022/02/05 21:44:39;;;;;;;10.33;2.30;;;;;7.80;101166.00;;;;9584961;30;20268;-80
2022/02/05 21:55:00;;;;;;;8.50;1.87;;;;;7.80;101140.00;;;;9605714;30;20694;-79
2022/02/05 22:00:06;;;;;;;7.07;2.40;;;;;7.70;101149.00;;;;9564515;30;20213;-80
2022/02/05 22:05:08;;;;;;;8.63;2.00;;;;;7.60;101148.00;;;;9584906;30;20245;-80
2022/02/05 22:10:11;;;;;;;8.97;2.37;;;;;7.50;101137.00;;;;9581105;30;20202;-80
2022/02/05 22:15:13;;;;;;;7.27;2.27;;;;;7.40;101130.00;;;;9597726;30;20678;-79
2022/02/05 22:20:15;;;;;;;10.47;2.50;;;;;7.30;101134.00;;;;9596192;30;20244;-80
2022/02/05 22:25:17;;;;;;;8.93;2.10;;;;;7.30;101117.00;;;;9597502;30;20237;-80
2022/02/05 22:30:19;;;;;;;8.63;2.40;;;;;7.30;101118.00;;;;9584913;30;20213;-79
2022/02/05 22:35:20;;;;;;;3.67;1.90;;;;;7.40;101117.00;;;;9575962;30;20220;-79
2022/02/05 22:40:22;;;;;;;6.23;2.10;;;;;7.50;101109.00;;;;9587253;30;20223;-80
2022/02/05 22:45:25;;;;;;;6.97;1.90;;;;;7.50;101118.00;;;;9612773;30;20271;-80
2022/02/05 22:50:27;;;;;;;8.53;1.93;;;;;7.60;101104.00;;;;9633776;30;20354;-80
2022/02/05 22:55:29;;;;;;;6.33;2.10;;;;;7.60;101100.00;;;;9611724;30;20643;-80
2022/02/05 23:00:41;;;;;;;8.30;1.80;;;;;7.70;101103.00;;;;9595878;30;20758;-80
2022/02/05 23:05:43;;;;;;;4.83;2.27;;;;;7.70;101074.00;;;;9611060;30;20249;-80
2022/02/05 23:12:13;;;;;;;9.13;2.53;;;;;7.70;101054.00;;;;9593825;30;20821;-79
2022/02/05 23:42:59;;;;;;;5.70;2.17;;;;;7.40;101046.00;;;;9617530;30;20303;-80
2022/02/05 23:48:04;;;;;;;8.07;3.07;;;;;7.30;101047.00;;;;9613093;30;20319;-80
2022/02/05 23:53:06;;;;;;;5.67;1.67;;;;;7.40;101025.00;;;;9602243;30;20265;-80
2022/02/05 23:58:10;;;;;;;6.63;1.90;;;;;7.40;101033.00;;;;9616696;30;20627;-80
